Time;durP1;ratioP1;P1;durP2;ratioP2;P2;SDS_P1;SDS_P2;PMS_P1;PMS_P2;Temp;Humidity;BMP_temperature;BMP_pressure;BME280_temperature;BME280_humidity;BME280_pressure;Samples;Min_cycle;Max_cycle;Signal;HPM_P1;HPM_P2
2022/09/08 08:06:45;;;;;;;;;;;;;;;16.65;100.00;99145.16;6243773;22;20343;-90
2022/09/08 08:09:10;;;;;;;;;;;;;;;16.37;100.00;99147.31;6273718;22;19919;-86
2022/09/08 08:11:40;;;;;;;;;;;;;;;16.60;100.00;99142.84;6274841;22;19918;-92
2022/09/08 08:14:09;;;;;;;;;;;;;;;16.41;100.00;99145.25;6248692;22;19915;-94
2022/09/08 08:16:41;;;;;;;;;;;;;;;16.53;100.00;99142.47;6276096;22;19919;-92
2022/09/08 08:19:16;;;;;;;;;;;;;;;16.51;100.00;99148.91;6274690;22;19990;-88
2022/09/08 08:21:47;;;;;;;;;;;;;;;16.47;100.00;99147.47;6277703;22;19911;-89
2022/09/08 08:24:30;;;;;;;;;;;;;;;16.52;100.00;99148.78;6250122;22;19933;-85
2022/09/08 08:26:59;;;;;;;;;;;;;;;16.46;100.00;99154.59;6275581;22;19915;-82
2022/09/08 08:29:24;;;;;;;;;;;;;;;16.62;100.00;99150.75;6277242;22;19911;-82
2022/09/08 08:32:03;;;;;;;;;;;;;;;16.39;100.00;99155.22;6277611;22;19925;-81
2022/09/08 08:34:29;;;;;;;;;;;;;;;16.63;100.00;99158.66;6246535;22;19993;-82
2022/09/08 08:36:58;;;;;;;;;;;;;;;16.35;100.00;99154.59;6276658;22;19923;-83
2022/09/08 08:39:23;;;;;;;;;;;;;;;16.82;100.00;99157.22;6249488;22;19964;-83
2022/09/08 08:41:58;;;;;;;;;;;;;;;17.70;100.00;99152.88;6249877;22;19934;-83
2022/09/08 08:44:26;;;;;;;;;;;;;;;18.37;100.00;99145.56;6277135;22;19939;-83
2022/09/08 08:47:10;;;;;;;;;;;;;;;18.26;100.00;99155.34;6276994;22;20005;-84
2022/09/08 08:49:35;;;;;;;;;;;;;;;19.00;100.00;99145.47;6275562;22;19919;-82
2022/09/08 08:52:07;;;;;;;;;;;;;;;19.09;100.00;99136.59;6277175;22;19915;-90
2022/09/08 08:54:50;;;;;;;;;;;;;;;19.04;100.00;99145.06;6275773;22;19912;-86
2022/09/08 08:57:31;;;;;;;;;;;;;;;18.79;100.00;99153.53;6275808;22;19958;-85
2022/09/08 08:59:59;;;;;;;;;;;;;;;18.83;100.00;99147.78;6249196;22;19915;-85
2022/09/08 09:02:37;;;;;;;;;;;;;;;18.67;100.00;99142.06;6275487;22;19934;-84
2022/09/08 09:05:17;;;;;;;;;;;;;;;16.98;100.00;99146.19;6274519;22;20331;-83
2022/09/08 09:07:56;;;;;;;;;;;;;;;15.77;100.00;99152.69;6275543;22;19938;-84
2022/09/08 09:10:40;;;;;;;;;;;;;;;15.22;100.00;99157.56;6274203;22;19984;-83
2022/09/08 09:13:24;;;;;;;;;;;;;;;14.81;100.00;99153.38;6275727;22;19915;-84
2022/09/08 09:15:49;;;;;;;;;;;;;;;14.49;100.00;99144.94;6275254;22;19915;-92
2022/09/08 09:18:22;;;;;;;;;;;;;;;14.30;100.00;99146.19;6273548;22;20389;-83
2022/09/08 09:21:00;;;;;;;;;;;;;;;14.13;100.00;99157.13;6275800;22;19919;-86
2022/09/08 09:23:37;;;;;;;;;;;;;;;13.91;100.00;99155.03;6276921;22;19965;-84
2022/09/08 09:26:16;;;;;;;;;;;;;;;13.87;100.00;99151.75;6276652;22;19952;-84
2022/09/08 09:28:51;;;;;;;;;;;;;;;13.71;100.00;99148.41;6276809;22;19915;-83
2022/09/08 09:31:28;;;;;;;;;;;;;;;13.67;100.00;99141.56;6275344;22;20289;-83
2022/09/08 09:33:56;;;;;;;;;;;;;;;13.58;100.00;99143.88;6273583;22;19976;-83
2022/09/08 09:36:37;;;;;;;;;;;;;;;13.56;100.00;99137.81;6274451;22;20247;-84
2022/09/08 09:39:12;;;;;;;;;;;;;;;13.47;100.00;99135.75;6275947;22;20258;-84
2022/09/08 09:41:41;;;;;;;;;;;;;;;13.38;100.00;99139.84;6275788;22;19916;-83
2022/09/08 09:44:20;;;;;;;;;;;;;;;13.34;100.00;99148.09;6276214;22;19911;-85
2022/09/08 09:47:00;;;;;;;;;;;;;;;13.26;100.00;99144.13;6274470;22;19911;-86
2022/09/08 09:49:45;;;;;;;;;;;;;;;13.18;100.00;99149.09;6273751;22;19993;-83
2022/09/08 09:52:29;;;;;;;;;;;;;;;13.19;100.00;99134.81;6275966;22;19919;-84
2022/09/08 09:55:02;;;;;;;;;;;;;;;13.17;100.00;99138.53;6276375;22;20049;-84
2022/09/08 09:57:50;;;;;;;;;;;;;;;13.19;100.00;99129.50;6276426;22;20342;-84
2022/09/08 10:00:17;;;;;;;;;;;;;;;13.10;100.00;99135.41;6276294;22;20020;-82
2022/09/08 10:03:00;;;;;;;;;;;;;;;13.11;100.00;99128.28;6276615;22;19915;-84
2022/09/08 10:05:46;;;;;;;;;;;;;;;13.00;100.00;99127.19;6271764;22;22829;-82
2022/09/08 10:08:41;;;;;;;;;;;;;;;12.98;100.00;99129.06;6276388;22;19919;-83
2022/09/08 10:11:06;;;;;;;;;;;;;;;13.01;100.00;99122.69;6274670;22;19922;-86
2022/09/08 10:13:50;;;;;;;;;;;;;;;13.07;100.00;99128.47;6275712;22;19911;-83
2022/09/08 10:16:38;;;;;;;;;;;;;;;12.98;100.00;99117.56;6276211;22;20315;-82
2022/09/08 10:19:11;;;;;;;;;;;;;;;12.93;100.00;99120.53;6274601;22;19911;-83
2022/09/08 10:21:45;;;;;;;;;;;;;;;12.87;100.00;99119.09;6274559;22;20410;-82
2022/09/08 10:24:30;;;;;;;;;;;;;;;12.82;100.00;99117.69;6276178;22;19919;-82
2022/09/08 10:27:14;;;;;;;;;;;;;;;12.82;100.00;99120.34;6276191;22;20297;-83
2022/09/08 10:29:58;;;;;;;;;;;;;;;12.88;100.00;99115.50;6274417;22;19912;-82
2022/09/08 10:32:44;;;;;;;;;;;;;;;12.77;100.00;99120.63;6275946;22;19993;-82
2022/09/08 10:35:09;;;;;;;;;;;;;;;12.76;100.00;99110.94;6274672;22;19962;-83
2022/09/08 10:37:35;;;;;;;;;;;;;;;12.77;100.00;99115.31;6275958;22;20334;-86
2022/09/08 10:40:20;;;;;;;;;;;;;;;12.82;100.00;99105.25;6275819;22;19934;-83
2022/09/08 10:42:45;;;;;;;;;;;;;;;12.70;100.00;99113.97;6275901;22;19911;-82
2022/09/08 10:45:21;;;;;;;;;;;;;;;12.68;100.00;99110.56;6276230;22;19986;-83
2022/09/08 10:47:46;;;;;;;;;;;;;;;12.61;100.00;99109.25;6275841;22;19938;-82
2022/09/08 10:50:11;;;;;;;;;;;;;;;12.60;100.00;99115.50;6274386;22;20343;-83
2022/09/08 10:52:50;;;;;;;;;;;;;;;12.60;100.00;99099.56;6275773;22;19919;-82
2022/09/08 10:55:15;;;;;;;;;;;;;;;12.51;100.00;99093.88;6275720;22;19911;-84
2022/09/08 10:58:07;;;;;;;;;;;;;;;12.49;100.00;99106.41;6274516;22;19958;-83
2022/09/08 11:00:45;;;;;;;;;;;;;;;12.45;100.00;99099.56;6245874;22;19969;-82
2022/09/08 11:03:13;;;;;;;;;;;;;;;12.46;100.00;99095.97;6275008;22;19915;-82
2022/09/08 11:06:08;;;;;;;;;;;;;;;12.39;100.00;99104.41;6275474;22;20551;-90
2022/09/08 11:08:48;;;;;;;;;;;;;;;12.44;100.00;99100.50;6262493;22;20008;-82
2022/09/08 11:11:43;;;;;;;;;;;;;;;12.39;100.00;99112.38;6275878;22;20270;-86
2022/09/08 11:14:35;;;;;;;;;;;;;;;12.36;100.00;99105.44;6219292;22;19938;-87
2022/09/08 11:17:00;;;;;;;;;;;;;;;12.55;100.00;99105.16;6275735;22;19990;-83
2022/09/08 11:19:34;;;;;;;;;;;;;;;12.52;100.00;99110.66;6273992;22;19950;-88
2022/09/08 11:22:19;;;;;;;;;;;;;;;12.51;100.00;99120.44;6275600;22;19961;-88
2022/09/08 11:24:55;;;;;;;;;;;;;;;12.52;100.00;99111.53;6275750;22;19982;-88
2022/09/08 11:27:33;;;;;;;;;;;;;;;12.42;100.00;99123.66;6248766;22;19911;-84
2022/09/08 11:30:11;;;;;;;;;;;;;;;12.41;100.00;99132.56;6275900;22;19915;-90
2022/09/08 11:32:43;;;;;;;;;;;;;;;12.43;100.00;99138.66;6275618;22;19922;-85
2022/09/08 11:35:23;;;;;;;;;;;;;;;12.33;100.00;99135.72;6274156;22;19918;-83
2022/09/08 11:37:55;;;;;;;;;;;;;;;12.31;100.00;99134.94;6274586;22;20315;-83
2022/09/08 11:40:37;;;;;;;;;;;;;;;12.42;100.00;99136.94;6273796;22;19957;-83
2022/09/08 11:43:41;;;;;;;;;;;;;;;12.40;100.00;99136.19;6275654;22;19957;-84
2022/09/08 11:46:21;;;;;;;;;;;;;;;12.37;100.00;99148.81;6186711;23;19979;-91
2022/09/08 11:49:11;;;;;;;;;;;;;;;12.30;100.00;99146.53;6185150;23;20007;-89
2022/09/08 11:51:36;;;;;;;;;;;;;;;12.41;100.00;99137.88;6258265;22;19907;-83
2022/09/08 11:54:01;;;;;;;;;;;;;;;12.34;100.00;99136.56;6275562;22;19915;-83
2022/09/08 11:56:57;;;;;;;;;;;;;;;12.31;100.00;99134.09;6275547;22;19918;-90
2022/09/08 11:59:41;;;;;;;;;;;;;;;12.31;100.00;99139.41;6275204;22;19915;-82
2022/09/08 12:02:27;;;;;;;;;;;;;;;12.27;100.00;99130.78;6275795;22;19986;-83
2022/09/08 12:05:01;;;;;;;;;;;;;;;12.22;100.00;99127.53;6273593;22;20250;-83
2022/09/08 12:07:26;;;;;;;;;;;;;;;12.27;100.00;99121.94;6275546;22;20322;-86
2022/09/08 12:10:10;;;;;;;;;;;;;;;12.24;100.00;99122.97;6275443;22;19918;-88
2022/09/08 12:12:51;;;;;;;;;;;;;;;12.22;100.00;99122.22;6274270;22;20323;-86
2022/09/08 12:15:35;;;;;;;;;;;;;;;12.31;100.00;99119.00;6275612;22;19990;-89
2022/09/08 12:18:19;;;;;;;;;;;;;;;12.26;100.00;99114.91;6275499;22;19911;-84
2022/09/08 12:21:03;;;;;;;;;;;;;;;12.34;100.00;99107.34;6275242;22;20406;-88
2022/09/08 12:23:38;;;;;;;;;;;;;;;12.32;100.00;99110.09;6275485;22;20033;-83
2022/09/08 12:26:06;;;;;;;;;;;;;;;12.27;100.00;99103.34;6275456;22;19995;-90
2022/09/08 12:28:37;;;;;;;;;;;;;;;12.30;100.00;99105.81;6275629;22;19986;-94
2022/09/08 12:31:06;;;;;;;;;;;;;;;12.34;100.00;99102.03;6275709;22;19915;-83
2022/09/08 12:33:47;;;;;;;;;;;;;;;12.31;100.00;99100.41;6273804;22;19915;-83
2022/09/08 12:36:12;;;;;;;;;;;;;;;12.21;100.00;99093.94;6275529;22;19917;-91
2022/09/08 12:38:56;;;;;;;;;;;;;;;12.20;100.00;99088.72;6276153;22;19911;-83
2022/09/08 12:41:40;;;;;;;;;;;;;;;12.23;100.00;99100.00;6276254;22;19984;-92
2022/09/08 12:44:15;;;;;;;;;;;;;;;12.25;100.00;99097.25;6277314;22;20220;-88
2022/09/08 12:46:50;;;;;;;;;;;;;;;12.17;100.00;99106.56;6277131;22;19991;-92
2022/09/08 12:49:24;;;;;;;;;;;;;;;12.21;100.00;99112.53;6248995;22;19946;-83
2022/09/08 12:51:52;;;;;;;;;;;;;;;12.18;100.00;99108.25;6277108;22;20312;-87
2022/09/08 12:54:24;;;;;;;;;;;;;;;12.21;100.00;99106.38;6276944;22;19915;-84
2022/09/08 12:57:02;;;;;;;;;;;;;;;12.19;100.00;99103.81;6277030;22;19961;-86
2022/09/08 12:59:42;;;;;;;;;;;;;;;12.13;100.00;99099.72;6275344;22;19922;-83
2022/09/08 13:02:26;;;;;;;;;;;;;;;12.11;100.00;99101.63;6277232;22;19922;-89
2022/09/08 13:05:10;;;;;;;;;;;;;;;12.07;100.00;99089.47;6273820;22;19917;-85
2022/09/08 13:07:54;;;;;;;;;;;;;;;12.11;100.00;99104.28;6277125;22;19915;-90
2022/09/08 13:10:24;;;;;;;;;;;;;;;11.99;100.00;99110.31;6277082;22;19938;-90
2022/09/08 13:13:07;;;;;;;;;;;;;;;12.06;100.00;99111.66;6277010;22;19915;-84
2022/09/08 13:15:34;;;;;;;;;;;;;;;11.97;100.00;99101.59;6277292;22;20037;-87
2022/09/08 13:18:00;;;;;;;;;;;;;;;11.97;100.00;99098.94;6276116;22;19995;-90
2022/09/08 13:20:44;;;;;;;;;;;;;;;12.01;100.00;99092.47;6275441;22;19946;-89
2022/09/08 13:23:20;;;;;;;;;;;;;;;11.97;100.00;99099.78;6274290;22;19912;-85
2022/09/08 13:26:00;;;;;;;;;;;;;;;11.94;100.00;99099.13;6275782;22;19953;-90
2022/09/08 13:28:28;;;;;;;;;;;;;;;11.94;100.00;99104.44;6276863;22;19972;-88
2022/09/08 13:31:02;;;;;;;;;;;;;;;11.98;100.00;99111.25;6276708;22;19911;-87
2022/09/08 13:33:39;;;;;;;;;;;;;;;11.90;100.00;99110.81;6275230;22;19931;-88
2022/09/08 13:36:21;;;;;;;;;;;;;;;11.93;100.00;99115.97;6276524;22;19912;-90
2022/09/08 13:39:04;;;;;;;;;;;;;;;11.98;100.00;99114.78;6276650;22;20315;-89
2022/09/08 13:41:42;;;;;;;;;;;;;;;11.94;100.00;99131.81;6249686;22;19965;-88
2022/09/08 13:44:26;;;;;;;;;;;;;;;12.03;100.00;99133.09;6275148;22;19919;-89
2022/09/08 13:47:04;;;;;;;;;;;;;;;12.00;100.00;99151.84;6275052;22;19915;-83
2022/09/08 13:49:49;;;;;;;;;;;;;;;12.18;100.00;99141.94;6274379;22;19994;-86
2022/09/08 13:52:30;;;;;;;;;;;;;;;12.13;100.00;99136.91;6249075;22;19953;-87
2022/09/08 13:55:31;;;;;;;;;;;;;;;12.11;100.00;99124.66;6276628;22;19917;-93
2022/09/08 13:58:02;;;;;;;;;;;;;;;11.91;100.00;99131.13;6212803;23;19912;-83
2022/09/08 14:00:28;;;;;;;;;;;;;;;12.02;100.00;99130.53;6265811;22;19915;-87
2022/09/08 14:02:59;;;;;;;;;;;;;;;11.99;100.00;99131.56;6276199;22;20246;-89
2022/09/08 14:05:31;;;;;;;;;;;;;;;11.98;100.00;99137.78;6275152;22;19915;-90
2022/09/08 14:08:02;;;;;;;;;;;;;;;11.97;100.00;99128.13;6276902;22;19950;-90
2022/09/08 14:10:36;;;;;;;;;;;;;;;11.97;100.00;99128.97;6276976;22;19916;-90
2022/09/08 14:13:16;;;;;;;;;;;;;;;11.96;100.00;99129.06;6276386;22;19915;-91
2022/09/08 14:15:44;;;;;;;;;;;;;;;12.01;100.00;99121.69;6276334;22;19915;-88
2022/09/08 14:18:28;;;;;;;;;;;;;;;11.97;100.00;99114.88;6275833;22;19998;-92
2022/09/08 14:21:05;;;;;;;;;;;;;;;11.99;100.00;99112.97;6275052;22;20398;-92
2022/09/08 14:23:33;;;;;;;;;;;;;;;11.98;100.00;99117.44;6276287;22;19911;-84
2022/09/08 14:26:24;;;;;;;;;;;;;;;12.04;100.00;99120.66;6276455;22;19976;-87
2022/09/08 14:28:55;;;;;;;;;;;;;;;11.97;100.00;99115.72;6276447;22;19919;-85
2022/09/08 14:31:23;;;;;;;;;;;;;;;11.94;100.00;99109.75;6276086;22;19911;-87
2022/09/08 14:33:54;;;;;;;;;;;;;;;11.94;100.00;99115.88;6275107;22;19911;-86
2022/09/08 14:36:24;;;;;;;;;;;;;;;11.91;100.00;99105.41;6273428;22;19919;-91
2022/09/08 14:39:06;;;;;;;;;;;;;;;11.90;100.00;99109.03;6276478;22;19918;-89
2022/09/08 14:41:51;;;;;;;;;;;;;;;11.89;100.00;99096.69;6276262;22;19911;-90
2022/09/08 14:44:17;;;;;;;;;;;;;;;11.85;100.00;99089.84;6275869;22;19915;-87
2022/09/08 14:46:50;;;;;;;;;;;;;;;11.86;100.00;99088.91;6274827;22;19919;-86
2022/09/08 14:49:18;;;;;;;;;;;;;;;11.90;100.00;99089.59;6274795;22;19965;-86
2022/09/08 14:51:56;;;;;;;;;;;;;;;11.84;100.00;99087.28;6272843;22;19958;-89
2022/09/08 14:54:27;;;;;;;;;;;;;;;11.75;100.00;99084.22;6276406;22;19957;-88
2022/09/08 14:57:24;;;;;;;;;;;;;;;11.85;100.00;99096.97;6275663;22;20247;-89
2022/09/08 15:00:01;;;;;;;;;;;;;;;11.82;100.00;99096.22;6262991;22;19933;-89
2022/09/08 15:02:28;;;;;;;;;;;;;;;11.80;100.00;99097.25;6275452;22;19912;-91
2022/09/08 15:05:04;;;;;;;;;;;;;;;11.80;100.00;99108.69;6274422;22;19914;-90
2022/09/08 15:07:34;;;;;;;;;;;;;;;11.80;100.00;99103.38;6275504;22;20421;-89
2022/09/08 15:10:18;;;;;;;;;;;;;;;11.84;100.00;99108.53;6249144;22;19912;-87
2022/09/08 15:12:50;;;;;;;;;;;;;;;11.80;100.00;99102.53;6275911;22;20350;-86
2022/09/08 15:15:32;;;;;;;;;;;;;;;11.80;100.00;99108.69;6274420;22;19911;-86
2022/09/08 15:17:59;;;;;;;;;;;;;;;11.86;100.00;99101.34;6275333;22;20573;-82
2022/09/08 15:20:33;;;;;;;;;;;;;;;11.81;100.00;99109.56;6274125;22;20572;-82
2022/09/08 15:23:17;;;;;;;;;;;;;;;11.79;100.00;99103.47;6275780;22;19911;-84
2022/09/08 15:26:07;;;;;;;;;;;;;;;11.81;100.00;99094.50;6274984;22;19933;-84
2022/09/08 15:28:32;;;;;;;;;;;;;;;11.80;100.00;99098.09;6274911;22;19911;-82
2022/09/08 15:31:33;;;;;;;;;;;;;;;11.80;100.00;99094.59;6272949;22;19950;-88
2022/09/08 15:34:01;;;;;;;;;;;;;;;11.79;100.00;99096.38;6210079;23;19947;-84
2022/09/08 15:36:44;;;;;;;;;;;;;;;11.76;100.00;99093.06;6263389;22;19950;-85
2022/09/08 15:39:25;;;;;;;;;;;;;;;11.81;100.00;99089.19;6274340;22;19911;-94
2022/09/08 15:42:04;;;;;;;;;;;;;;;11.77;100.00;99087.66;6275267;22;19938;-83
2022/09/08 15:44:30;;;;;;;;;;;;;;;11.81;100.00;99088.34;6276474;22;19911;-92
2022/09/08 15:47:13;;;;;;;;;;;;;;;11.79;100.00;99087.56;6275298;22;20285;-86
2022/09/08 15:49:42;;;;;;;;;;;;;;;11.76;100.00;99079.81;6274115;22;19946;-84
2022/09/08 15:52:22;;;;;;;;;;;;;;;11.74;100.00;99087.84;6273981;22;20216;-90
2022/09/08 15:55:13;;;;;;;;;;;;;;;11.75;100.00;99078.09;6274939;22;19915;-89
2022/09/08 15:58:03;;;;;;;;;;;;;;;11.73;100.00;99078.16;6224979;22;19921;-82
2022/09/08 16:00:31;;;;;;;;;;;;;;;11.74;100.00;99071.94;6275881;22;20009;-90
2022/09/08 16:03:04;;;;;;;;;;;;;;;11.69;100.00;99068.66;6274043;22;19960;-90
2022/09/08 16:05:33;;;;;;;;;;;;;;;13.96;100.00;99060.59;6268335;22;19995;-90
2022/09/08 16:08:09;;;;;;;;;;;;;;;12.46;100.00;99057.91;6245357;23;19911;-91
2022/09/08 16:10:54;;;;;;;;;;;;;;;12.13;100.00;99067.84;6243666;23;19912;-92
2022/09/08 16:13:22;;;;;;;;;;;;;;;11.92;100.00;99063.84;6218269;23;20320;-82
2022/09/08 16:15:48;;;;;;;;;;;;;;;11.87;100.00;99071.19;6219683;23;19920;-83
2022/09/08 16:18:20;;;;;;;;;;;;;;;11.84;100.00;99077.53;6245435;23;19938;-82
2022/09/08 16:21:09;;;;;;;;;;;;;;;11.81;100.00;99072.41;6246909;23;19915;-82
2022/09/08 16:23:55;;;;;;;;;;;;;;;11.78;100.00;99062.81;6200409;23;20288;-81
2022/09/08 16:26:29;;;;;;;;;;;;;;;11.73;100.00;99069.38;6220301;23;19935;-85
2022/09/08 16:29:16;;;;;;;;;;;;;;;11.76;100.00;99070.03;6246736;23;19920;-82
2022/09/08 16:31:46;;;;;;;;;;;;;;;11.73;100.00;99070.22;6271799;22;19915;-93
2022/09/08 16:34:12;;;;;;;;;;;;;;;11.69;100.00;99068.66;6246422;23;19911;-81
2022/09/08 16:36:38;;;;;;;;;;;;;;;11.67;100.00;99073.22;6220472;23;19915;-91
2022/09/08 16:39:24;;;;;;;;;;;;;;;11.78;100.00;99068.13;6271142;22;20290;-82
2022/09/08 16:41:54;;;;;;;;;;;;;;;11.65;100.00;99069.81;6219074;23;20362;-83
2022/09/08 16:44:27;;;;;;;;;;;;;;;11.68;100.00;99071.41;6245216;23;19911;-83
2022/09/08 16:46:55;;;;;;;;;;;;;;;11.71;100.00;99072.09;6246793;23;20373;-92
2022/09/08 16:49:33;;;;;;;;;;;;;;;11.70;100.00;99073.03;6217369;23;19947;-83
2022/09/08 16:51:58;;;;;;;;;;;;;;;11.72;100.00;99073.78;6219023;23;19916;-87
2022/09/08 16:54:26;;;;;;;;;;;;;;;11.71;100.00;99073.88;6246498;23;19915;-82
2022/09/08 16:56:57;;;;;;;;;;;;;;;11.62;100.00;99067.34;6245502;23;20002;-85
2022/09/08 16:59:25;;;;;;;;;;;;;;;11.63;100.00;99066.38;6246156;23;19919;-81
2022/09/08 17:02:05;;;;;;;;;;;;;;;11.70;100.00;99072.19;6220226;23;19911;-89
2022/09/08 17:04:51;;;;;;;;;;;;;;;11.63;100.00;99071.69;6245012;23;20217;-86
2022/09/08 17:07:22;;;;;;;;;;;;;;;11.68;100.00;99069.63;6247149;23;19994;-91
2022/09/08 17:09:52;;;;;;;;;;;;;;;11.69;100.00;99067.81;6246761;23;19915;-92
2022/09/08 17:12:29;;;;;;;;;;;;;;;11.68;100.00;99071.41;6219611;23;19939;-90
2022/09/08 17:15:07;;;;;;;;;;;;;;;11.66;100.00;99068.84;6219172;23;20005;-86
2022/09/08 17:17:32;;;;;;;;;;;;;;;11.77;100.00;99066.41;6247298;23;19918;-92
2022/09/08 17:19:58;;;;;;;;;;;;;;;11.75;100.00;99073.63;6245342;23;20324;-89
2022/09/08 17:23:02;;;;;;;;;;;;;;;11.74;100.00;99065.75;6246692;23;19958;-87
2022/09/08 17:25:59;;;;;;;;;;;;;;;11.76;100.00;99074.50;6066164;23;19914;-91
2022/09/08 17:28:33;;;;;;;;;;;;;;;11.72;100.00;99083.56;6019945;23;20326;-88
2022/09/08 17:31:02;;;;;;;;;;;;;;;11.72;100.00;99068.50;6199104;23;19942;-84
2022/09/08 17:33:46;;;;;;;;;;;;;;;11.77;100.00;99077.03;6217045;23;20262;-82
2022/09/08 17:36:20;;;;;;;;;;;;;;;11.76;100.00;99069.19;6245396;23;19916;-90
2022/09/08 17:38:55;;;;;;;;;;;;;;;11.74;100.00;99071.94;6218864;23;19918;-82
2022/09/08 17:41:39;;;;;;;;;;;;;;;11.77;100.00;99074.38;6246248;23;19912;-88
2022/09/08 17:44:25;;;;;;;;;;;;;;;11.65;100.00;99072.47;6219647;23;19911;-91
2022/09/08 17:46:55;;;;;;;;;;;;;;;11.71;100.00;99077.41;6143688;23;20388;-92
2022/09/08 17:49:31;;;;;;;;;;;;;;;11.65;100.00;99075.13;6207795;23;19950;-88
2022/09/08 17:52:07;;;;;;;;;;;;;;;11.58;100.00;99071.97;6245841;23;19911;-86
2022/09/08 17:54:37;;;;;;;;;;;;;;;11.65;100.00;99072.47;6246024;23;19916;-91
2022/09/08 17:57:08;;;;;;;;;;;;;;;11.61;100.00;99081.53;6218564;23;19951;-88
2022/09/08 17:59:51;;;;;;;;;;;;;;;11.63;100.00;99080.50;6245706;23;19911;-91
2022/09/08 18:02:19;;;;;;;;;;;;;;;11.60;100.00;99088.66;6245641;23;20324;-92
2022/09/08 18:04:50;;;;;;;;;;;;;;;11.55;100.00;99080.13;6217646;23;20000;-89
2022/09/08 18:07:19;;;;;;;;;;;;;;;11.64;100.00;99089.31;6091585;23;19971;-84
2022/09/08 18:09:47;;;;;;;;;;;;;;;11.59;100.00;99081.63;6092244;23;19913;-84
2022/09/08 18:12:13;;;;;;;;;;;;;;;11.57;100.00;99083.53;6093084;23;19913;-85
2022/09/08 18:14:57;;;;;;;;;;;;;;;11.60;100.00;99090.47;6093069;23;19925;-84
2022/09/08 18:17:29;;;;;;;;;;;;;;;11.64;100.00;99086.66;6193356;23;19964;-83
2022/09/08 18:19:56;;;;;;;;;;;;;;;11.62;100.00;99088.56;6091421;23;19949;-84
2022/09/08 18:22:40;;;;;;;;;;;;;;;11.60;100.00;99091.31;6092134;23;19917;-86
2022/09/08 18:25:24;;;;;;;;;;;;;;;11.56;100.00;99094.22;6193806;23;20329;-82
2022/09/08 18:27:55;;;;;;;;;;;;;;;11.58;100.00;99097.63;6092816;23;19979;-83
2022/09/08 18:30:23;;;;;;;;;;;;;;;11.55;100.00;99095.16;6092397;23;19917;-88
2022/09/08 18:32:51;;;;;;;;;;;;;;;11.52;100.00;99100.63;6092473;23;19913;-88
2022/09/08 18:35:31;;;;;;;;;;;;;;;11.54;100.00;99101.41;6091658;23;20357;-84
2022/09/08 18:37:57;;;;;;;;;;;;;;;11.54;100.00;99096.13;6093436;23;20300;-91
2022/09/08 18:40:27;;;;;;;;;;;;;;;11.55;100.00;99105.75;6093242;23;19921;-86
2022/09/08 18:43:09;;;;;;;;;;;;;;;11.48;100.00;99109.72;6092538;23;19914;-89
2022/09/08 18:45:43;;;;;;;;;;;;;;;11.49;100.00;99111.41;6193201;23;19967;-83
2022/09/08 18:48:16;;;;;;;;;;;;;;;11.54;100.00;99101.41;6092923;23;19940;-91
2022/09/08 18:50:44;;;;;;;;;;;;;;;11.53;100.00;99110.31;6093090;23;19940;-87
2022/09/08 18:53:28;;;;;;;;;;;;;;;11.53;100.00;99110.31;6193098;23;19914;-89
2022/09/08 18:56:12;;;;;;;;;;;;;;;11.54;100.00;99115.53;6192843;23;19996;-83
2022/09/08 18:58:40;;;;;;;;;;;;;;;11.51;100.00;99120.16;6091234;23;20314;-82
2022/09/08 19:01:08;;;;;;;;;;;;;;;11.52;100.00;99129.81;6091863;23;20345;-86
2022/09/08 19:03:39;;;;;;;;;;;;;;;11.55;100.00;99124.34;6090688;23;19917;-87
2022/09/08 19:06:14;;;;;;;;;;;;;;;11.51;100.00;99125.47;6192610;23;19983;-89
2022/09/08 19:08:48;;;;;;;;;;;;;;;11.51;100.00;99122.81;6092328;23;19949;-86
2022/09/08 19:11:22;;;;;;;;;;;;;;;11.52;100.00;99124.50;6092400;23;20273;-89
2022/09/08 19:13:58;;;;;;;;;;;;;;;11.52;100.00;99119.19;6090857;23;19924;-91
2022/09/08 19:16:29;;;;;;;;;;;;;;;11.64;100.00;99118.50;6192690;23;19924;-83
2022/09/08 19:18:56;;;;;;;;;;;;;;;11.53;100.00;99118.28;6089986;23;19975;-85
2022/09/08 19:21:27;;;;;;;;;;;;;;;11.50;100.00;99123.75;6090603;23;19991;-86
2022/09/08 19:24:03;;;;;;;;;;;;;;;11.47;100.00;99115.97;6092089;23;19921;-83
2022/09/08 19:26:43;;;;;;;;;;;;;;;11.42;100.00;99119.75;6091796;23;19956;-90
2022/09/08 19:29:29;;;;;;;;;;;;;;;11.40;100.00;99118.97;6244002;22;19913;-88
2022/09/08 19:32:15;;;;;;;;;;;;;;;11.49;100.00;99122.03;6091501;23;19918;-82
2022/09/08 19:34:45;;;;;;;;;;;;;;;11.41;100.00;99118.03;6090847;23;19913;-82
2022/09/08 19:37:17;;;;;;;;;;;;;;;11.41;100.00;99118.03;6092263;23;19967;-90
2022/09/08 19:39:44;;;;;;;;;;;;;;;11.43;100.00;99121.44;6192066;23;19921;-90
2022/09/08 19:42:15;;;;;;;;;;;;;;;11.37;100.00;99121.78;6092250;23;19967;-86
2022/09/08 19:44:54;;;;;;;;;;;;;;;11.36;100.00;99114.78;6091803;23;19914;-85
2022/09/08 19:47:25;;;;;;;;;;;;;;;11.40;100.00;99120.78;6091940;23;19921;-90
2022/09/08 19:49:55;;;;;;;;;;;;;;;11.37;100.00;99121.78;6090794;23;19913;-81
2022/09/08 19:52:26;;;;;;;;;;;;;;;11.38;100.00;99117.34;6092151;23;20364;-84
2022/09/08 19:54:53;;;;;;;;;;;;;;;11.31;100.00;99114.19;6091254;23;20329;-92
2022/09/08 19:57:29;;;;;;;;;;;;;;;11.26;100.00;99116.25;6194595;23;20253;-83
2022/09/08 20:00:01;;;;;;;;;;;;;;;11.37;100.00;99113.84;6194347;23;20377;-82
2022/09/08 20:02:32;;;;;;;;;;;;;;;11.35;100.00;99113.06;6093834;23;19925;-90
2022/09/08 20:04:59;;;;;;;;;;;;;;;11.30;100.00;99109.00;6100069;23;20280;-83
2022/09/08 20:07:38;;;;;;;;;;;;;;;11.33;100.00;99112.31;6247101;23;19912;-89
2022/09/08 20:10:16;;;;;;;;;;;;;;;11.30;100.00;99107.19;6271060;22;19919;-83
2022/09/08 20:12:53;;;;;;;;;;;;;;;11.29;100.00;99104.63;6218560;23;19919;-92
2022/09/08 20:15:19;;;;;;;;;;;;;;;11.30;100.00;99103.69;6246259;23;19920;-90
2022/09/08 20:17:48;;;;;;;;;;;;;;;11.34;100.00;99105.19;6247116;23;19912;-90
2022/09/08 20:20:31;;;;;;;;;;;;;;;11.28;100.00;99101.13;6244670;23;20376;-90
2022/09/08 20:23:04;;;;;;;;;;;;;;;11.29;100.00;99107.28;6247981;23;19912;-93
2022/09/08 20:25:33;;;;;;;;;;;;;;;11.27;100.00;99104.69;6247134;23;19912;-93
2022/09/08 20:28:28;;;;;;;;;;;;;;;11.23;100.00;99108.44;6246396;23;19915;-82
2022/09/08 20:31:12;;;;;;;;;;;;;;;11.19;100.00;99106.94;6087809;23;19913;-90
2022/09/08 20:33:41;;;;;;;;;;;;;;;11.19;100.00;99109.59;6219175;23;19942;-93
2022/09/08 20:36:06;;;;;;;;;;;;;;;11.21;100.00;99110.34;6246500;23;19912;-92
2022/09/08 20:38:32;;;;;;;;;;;;;;;11.22;100.00;99104.13;6247392;23;19915;-91
2022/09/08 20:41:00;;;;;;;;;;;;;;;11.23;100.00;99105.81;6221078;23;20019;-92
2022/09/08 20:43:32;;;;;;;;;;;;;;;11.14;100.00;99103.69;6220537;23;19981;-91
2022/09/08 20:46:00;;;;;;;;;;;;;;;11.20;100.00;99111.28;6247123;23;19959;-90
2022/09/08 20:48:27;;;;;;;;;;;;;;;11.17;100.00;99109.66;6270140;22;19911;-89
2022/09/08 20:51:10;;;;;;;;;;;;;;;11.18;100.00;99099.91;6220428;23;19953;-85
2022/09/08 20:53:54;;;;;;;;;;;;;;;11.17;100.00;99100.84;6247106;23;20049;-92
2022/09/08 20:56:40;;;;;;;;;;;;;;;11.23;100.00;99096.06;6246477;23;20228;-92
2022/09/08 20:59:09;;;;;;;;;;;;;;;11.16;100.00;99102.66;6244980;23;19927;-90
2022/09/08 21:01:37;;;;;;;;;;;;;;;11.21;100.00;99105.03;6246800;23;19922;-82
2022/09/08 21:04:18;;;;;;;;;;;;;;;11.22;100.00;99099.66;6217827;23;20390;-90
2022/09/08 21:06:47;;;;;;;;;;;;;;;11.25;100.00;99106.59;6245757;23;20319;-86
2022/09/08 21:09:23;;;;;;;;;;;;;;;11.23;100.00;99100.50;6247161;23;19981;-82
2022/09/08 21:11:50;;;;;;;;;;;;;;;11.27;100.00;99104.69;6220090;23;19922;-87
2022/09/08 21:14:33;;;;;;;;;;;;;;;11.28;100.00;99106.41;6246176;23;19920;-85
2022/09/08 21:17:11;;;;;;;;;;;;;;;11.21;100.00;99100.59;6219096;23;19994;-83
2022/09/08 21:19:51;;;;;;;;;;;;;;;11.16;100.00;99107.09;6245158;23;19915;-92
2022/09/08 21:22:25;;;;;;;;;;;;;;;11.21;100.00;99105.03;6245737;23;19918;-86
2022/09/08 21:25:00;;;;;;;;;;;;;;;11.30;100.00;99099.22;6245612;23;19911;-82